Skip Navigation Links
NOAA logo - Click to go to the NOAA homepage
NOAA's National Weather Service
Alaska Aviation Weather Unit
  NWS logo - Click to go to the NWS homepage
Left Navbar Graphic     09 AKDT = 17 GMT

   
NOAA is celebrating 200 years of science, service, and stewardship. Visit the NOAA 200th celebration Web site to learn more.
USA.gov is the U.S. Government's official Web portal to all Federal, state and local government Web resources and services.
Facebook
NWS on Facebook

Important Change Regarding the AAWU Web Presence

 

Over the last several months, the AAWU has been working to navigate its webpages to a nationally supported server. Security, as well as other needs, have necessitated the change.  In the process, we have made an effort to enhance the functionality of our website, as well as some of our products. As of June 20, 2017, aawu.arh.noaa.gov will be discontinued. The new AAWU web address is weather.gov/aawu. It is now live and will run in-parallel with the old site until it is discontinued. Please send any feedback or questions regarding the new webpages to nws.ar.aawu.webauthors@noaa.gov.  Thank you for your patience during this time of transition.
AAWU Home :: Display TAF Add Bookmark
METAR PASX 231156Z AUTO 18009KT 10SM CLR 06/01 A2998 RMK AO2 SLP163
     T00610011 10072 20033 58004 $=

METAR PASX 231256Z AUTO 18008KT 10SM CLR 06/01 A2999 RMK AO2 SLP166
 T00560011 $=

METAR PASX 231356Z AUTO 17007KT 10SM CLR 06/02 A2999 RMK AO2 SLP165
     T00560017 $=

METAR PASX 231456Z AUTO 18009G17KT 10SM CLR 07/01 A2999 RMK AO2 SLP167
     T00670011 51003 $=

METAR PASX 231556Z AUTO 19008KT 170V240 10SM CLR 08/00 A3000 RMK AO2
 SLP169 T00780000 $=

METAR PASX 231656Z AUTO 20011G23KT 10SM CLR 08/M02 A3000 RMK AO2
 SLP168 T00781017 $=


NOAA's National Weather Service
Alaska Aviation Weather Unit
6930 Sand Lake Road
Anchorage, AK 99502-1845
Disclaimer
Credits
Glossary
Privacy Policy
About Us
Career Opportunities
Contact AAWU Internet Services Site last modified: April, 17th 2012